createdAt,value
2023-02-03T00:00:58.105Z,99087.72
2023-02-03T00:03:47.121Z,99080.03
2023-02-03T00:06:37.144Z,99085.06
2023-02-03T00:09:20.055Z,99097.00
2023-02-03T00:12:09.171Z,99105.59
2023-02-03T00:14:58.057Z,99107.81
2023-02-03T00:17:47.116Z,99108.41
2023-02-03T00:20:29.529Z,99096.47
2023-02-03T00:23:24.104Z,99098.78
2023-02-03T00:26:13.767Z,99091.63
2023-02-03T00:29:03.225Z,99101.59
2023-02-03T00:31:51.501Z,99114.84
2023-02-03T00:34:38.096Z,99120.25
2023-02-03T00:37:26.485Z,99141.16
2023-02-03T00:40:10.178Z,99148.72
2023-02-03T00:42:58.447Z,99138.81
2023-02-03T00:45:41.244Z,99137.69
2023-02-03T00:48:29.465Z,99133.56
2023-02-03T00:51:12.124Z,99119.72
2023-02-03T00:53:54.457Z,99100.84
2023-02-03T00:56:45.114Z,99108.16
2023-02-03T00:59:27.399Z,99111.16
2023-02-03T01:02:16.264Z,99108.47
2023-02-03T01:05:07.429Z,99107.59
2023-02-03T01:07:51.229Z,99128.16
2023-02-03T01:10:40.463Z,99143.94
2023-02-03T01:13:23.237Z,99148.88
2023-02-03T01:16:14.458Z,99151.63
2023-02-03T01:18:57.190Z,99147.88
2023-02-03T01:21:47.881Z,99141.78
2023-02-03T01:24:31.112Z,99144.38
2023-02-03T01:27:13.496Z,99140.78
2023-02-03T01:30:02.141Z,99149.03
2023-02-03T01:32:44.467Z,99139.78
2023-02-03T01:35:33.158Z,99138.50
2023-02-03T01:38:22.375Z,99150.94
2023-02-03T01:41:05.078Z,99156.44
2023-02-03T01:43:57.501Z,99175.22
2023-02-03T01:47:03.123Z,99176.56
2023-02-03T01:50:01.121Z,99179.88
2023-02-03T01:52:44.402Z,99182.28
2023-02-03T01:55:42.104Z,99173.44
2023-02-03T01:58:41.401Z,99173.25
2023-02-03T02:01:30.175Z,99191.19
2023-02-03T02:04:13.469Z,99191.69
2023-02-03T02:07:07.084Z,99183.44
2023-02-03T02:09:50.344Z,99199.50
2023-02-03T02:12:39.101Z,99211.41
2023-02-03T02:15:22.427Z,99203.72
2023-02-03T02:18:30.105Z,99202.72
2023-02-03T02:21:31.100Z,99215.34
2023-02-03T02:24:23.111Z,99213.59
2023-02-03T02:27:24.138Z,99217.44
2023-02-03T02:30:56.265Z,99216.88
2023-02-03T02:34:21.458Z,99214.88
2023-02-03T02:37:17.105Z,99229.75
2023-02-03T02:40:19.140Z,99233.88
2023-02-03T02:43:18.379Z,99251.69
2023-02-03T02:46:42.158Z,99246.50
2023-02-03T02:49:42.354Z,99257.94
2023-02-03T02:52:34.233Z,99264.06
2023-02-03T02:55:29.412Z,99277.66
2023-02-03T02:58:25.160Z,99279.16
2023-02-03T03:01:07.420Z,99276.28
2023-02-03T03:03:58.100Z,99280.88
2023-02-03T03:06:58.070Z,99282.81
2023-02-03T03:09:50.348Z,99302.53
2023-02-03T03:12:45.072Z,99300.91
2023-02-03T03:15:38.998Z,99289.59
2023-02-03T03:18:28.101Z,99297.38
2023-02-03T03:21:19.361Z,99323.63
2023-02-03T03:24:05.126Z,99318.53
2023-02-03T03:27:24.098Z,99319.75
2023-02-03T03:30:19.455Z,99310.88
2023-02-03T03:33:02.144Z,99318.88
2023-02-03T03:36:04.758Z,99335.88
2023-02-03T03:39:08.138Z,99331.78
2023-02-03T03:42:10.457Z,99325.94
2023-02-03T03:45:03.103Z,99339.31
2023-02-03T03:47:55.163Z,99319.84
2023-02-03T03:50:53.114Z,99325.13
2023-02-03T03:53:38.565Z,99325.09
2023-02-03T03:56:34.083Z,99319.84
2023-02-03T03:59:28.345Z,99329.13
2023-02-03T04:02:12.218Z,99332.28
2023-02-03T04:04:55.641Z,99342.84
2023-02-03T04:07:58.086Z,99342.28
2023-02-03T04:10:42.867Z,99344.25
2023-02-03T04:13:32.110Z,99342.03
2023-02-03T04:16:21.536Z,99347.00
2023-02-03T04:19:04.636Z,99356.34
2023-02-03T04:21:54.135Z,99362.91
2023-02-03T04:24:36.391Z,99378.63
2023-02-03T04:27:25.200Z,99371.94
2023-02-03T04:30:14.418Z,99372.06
2023-02-03T04:32:57.076Z,99366.00
2023-02-03T04:35:46.083Z,99368.59
2023-02-03T04:38:28.408Z,99370.50
2023-02-03T04:41:17.107Z,99367.63
2023-02-03T04:43:59.511Z,99370.50
2023-02-03T04:46:48.114Z,99376.41
2023-02-03T04:49:31.422Z,99372.19
2023-02-03T04:52:21.105Z,99376.38
2023-02-03T04:55:12.119Z,99371.19
2023-02-03T04:58:08.354Z,99377.94
2023-02-03T05:00:50.145Z,99376.47
2023-02-03T05:03:38.490Z,99388.13
2023-02-03T05:06:21.149Z,99383.38
2023-02-03T05:09:10.378Z,99382.16
2023-02-03T05:11:52.058Z,99382.31
2023-02-03T05:14:34.343Z,99372.44
2023-02-03T05:17:23.154Z,99386.38
2023-02-03T05:20:12.368Z,99367.09
2023-02-03T05:22:55.065Z,99360.06
2023-02-03T05:25:44.099Z,99369.56
2023-02-03T05:28:26.374Z,99357.22
2023-02-03T05:31:15.175Z,99357.41
2023-02-03T05:33:57.359Z,99361.13
2023-02-03T05:36:46.380Z,99357.44
2023-02-03T05:39:28.535Z,99354.59
2023-02-03T05:42:17.059Z,99358.78
2023-02-03T05:44:59.526Z,99352.75
2023-02-03T05:47:48.113Z,99345.78
2023-02-03T05:50:35.303Z,99343.88
2023-02-03T05:53:27.176Z,99338.78
2023-02-03T05:56:09.547Z,99332.22
2023-02-03T05:59:01.088Z,99333.34
2023-02-03T06:01:50.011Z,99338.00
2023-02-03T06:04:39.108Z,99331.75
2023-02-03T06:07:28.081Z,99326.81
2023-02-03T06:10:17.985Z,99321.50
2023-02-03T06:13:07.111Z,99309.44
2023-02-03T06:15:56.447Z,99297.44
2023-02-03T06:18:39.071Z,99287.47
2023-02-03T06:21:35.116Z,99276.50
2023-02-03T06:24:17.295Z,99285.38
2023-02-03T06:27:06.168Z,99270.91
2023-02-03T06:29:48.292Z,99274.28
2023-02-03T06:32:37.182Z,99266.47
2023-02-03T06:35:20.142Z,99266.03
2023-02-03T06:38:09.050Z,99255.84
2023-02-03T06:40:51.712Z,99258.06
2023-02-03T06:43:41.097Z,99249.69
2023-02-03T06:46:31.245Z,99240.22
2023-02-03T06:49:13.144Z,99246.13
2023-02-03T06:52:01.370Z,99241.84
2023-02-03T06:54:43.104Z,99233.44
2023-02-03T06:57:31.384Z,99226.81
2023-02-03T07:00:15.597Z,99227.78
2023-02-03T07:03:00.843Z,99222.19
2023-02-03T07:05:50.165Z,99220.22
2023-02-03T07:08:39.324Z,99218.25
2023-02-03T07:11:21.172Z,99206.09
2023-02-03T07:14:10.362Z,99194.31
2023-02-03T07:16:53.073Z,99196.59
2023-02-03T07:19:42.059Z,99194.34
2023-02-03T07:22:24.349Z,99185.50
2023-02-03T07:25:13.053Z,99176.28
2023-02-03T07:27:55.449Z,99184.72
2023-02-03T07:30:44.122Z,99172.00
2023-02-03T07:33:26.525Z,99164.72
2023-02-03T07:36:16.050Z,99154.16
2023-02-03T07:38:58.575Z,99154.66
2023-02-03T07:41:48.078Z,99149.25
2023-02-03T07:44:31.429Z,99138.50
2023-02-03T07:47:20.355Z,99127.66
2023-02-03T07:50:02.530Z,99126.78
2023-02-03T07:52:51.088Z,99129.25
2023-02-03T07:55:33.788Z,99122.78
2023-02-03T07:58:25.052Z,99120.59
2023-02-03T08:01:07.323Z,99117.84
2023-02-03T08:03:56.164Z,99102.03
2023-02-03T08:06:38.518Z,99105.31
2023-02-03T08:09:27.031Z,99101.53
2023-02-03T08:12:16.095Z,99095.31
2023-02-03T08:14:58.349Z,99098.63
2023-02-03T08:17:50.116Z,99089.72
2023-02-03T08:20:39.528Z,99091.34
2023-02-03T08:23:21.043Z,99081.63
2023-02-03T08:26:10.550Z,99082.13
2023-02-03T08:29:06.035Z,99066.47
2023-02-03T08:31:55.473Z,99067.03
2023-02-03T08:34:56.273Z,99060.56
2023-02-03T08:37:38.575Z,99061.66
2023-02-03T08:40:28.273Z,99050.28
2023-02-03T08:43:10.387Z,99036.50
2023-02-03T08:46:00.205Z,99035.91
2023-02-03T08:48:42.553Z,99042.69
2023-02-03T08:51:32.117Z,99035.91
2023-02-03T08:54:14.505Z,99035.03
2023-02-03T08:57:03.356Z,99035.59
2023-02-03T08:59:50.670Z,99038.81
2023-02-03T09:02:39.130Z,99033.41
2023-02-03T09:05:21.514Z,99030.97
2023-02-03T09:08:10.174Z,99034.75
2023-02-03T09:10:52.492Z,99023.66
2023-02-03T09:13:42.113Z,99017.16
2023-02-03T09:16:27.701Z,99014.47
2023-02-03T09:19:17.045Z,99017.16
2023-02-03T09:21:59.532Z,99011.00
2023-02-03T09:24:48.101Z,99014.50
2023-02-03T09:27:30.459Z,99017.72
2023-02-03T09:30:20.157Z,99010.44
2023-02-03T09:33:03.397Z,99015.56
2023-02-03T09:36:01.025Z,99019.97
2023-02-03T09:38:43.470Z,99020.75
2023-02-03T09:41:52.245Z,99021.53
2023-02-03T09:45:01.343Z,99019.97
2023-02-03T09:47:53.079Z,99012.59
2023-02-03T09:50:40.351Z,99009.84
2023-02-03T09:53:39.043Z,99009.81
2023-02-03T09:56:37.394Z,99015.97
2023-02-03T09:59:27.095Z,99014.91
2023-02-03T10:02:34.164Z,99013.03
2023-02-03T10:05:32.001Z,99023.78
2023-02-03T10:08:32.674Z,99017.75
2023-02-03T10:11:45.072Z,99019.38
2023-02-03T10:14:27.450Z,99020.22
2023-02-03T10:17:38.092Z,99016.09
2023-02-03T10:20:44.013Z,99024.47
2023-02-03T10:23:30.476Z,99014.66
2023-02-03T10:26:35.014Z,99019.00
2023-02-03T10:29:45.954Z,99024.94
2023-02-03T10:32:36.174Z,99024.81
2023-02-03T10:35:23.404Z,99020.38
2023-02-03T10:38:21.099Z,99025.72
2023-02-03T10:41:10.190Z,99021.69
2023-02-03T10:43:56.031Z,99015.19
2023-02-03T10:46:51.048Z,99023.56
2023-02-03T10:49:41.586Z,99021.88
2023-02-03T10:53:00.141Z,99021.81
2023-02-03T10:55:42.466Z,99021.56
2023-02-03T10:58:41.996Z,99022.56
2023-02-03T11:01:35.213Z,99015.88
2023-02-03T11:04:39.493Z,99019.09
2023-02-03T11:07:38.115Z,99020.16
2023-02-03T11:10:36.828Z,99017.44
2023-02-03T11:13:27.116Z,99020.94
2023-02-03T11:16:29.463Z,99020.94
2023-02-03T11:19:25.066Z,99014.72
2023-02-03T11:22:14.011Z,99012.22
2023-02-03T11:25:03.431Z,99011.63
2023-02-03T11:27:46.381Z,99011.59
2023-02-03T11:30:36.460Z,99012.88
2023-02-03T11:33:27.014Z,99009.03
2023-02-03T11:36:19.691Z,99007.09
2023-02-03T11:39:37.073Z,99008.84
2023-02-03T11:42:27.856Z,99010.41
2023-02-03T11:45:51.013Z,99009.00
2023-02-03T11:49:04.166Z,99008.09
2023-02-03T11:52:17.120Z,99014.31
2023-02-03T11:55:22.915Z,99015.25
2023-02-03T11:58:43.068Z,99022.91
2023-02-03T12:02:08.362Z,99022.13
2023-02-03T12:05:12.100Z,99029.25
2023-02-03T12:08:13.379Z,99035.63
2023-02-03T12:11:14.158Z,99035.06
2023-02-03T12:14:30.047Z,99040.59
2023-02-03T12:18:00.071Z,99038.28
2023-02-03T12:21:27.517Z,99038.47
2023-02-03T12:24:32.114Z,99049.50
2023-02-03T12:27:43.955Z,99052.56
2023-02-03T12:30:54.047Z,99049.50
2023-02-03T12:33:57.371Z,99057.41
2023-02-03T12:36:49.010Z,99052.56
2023-02-03T12:39:40.446Z,99055.25
2023-02-03T12:42:36.328Z,99059.81
2023-02-03T12:45:38.017Z,99058.31
2023-02-03T12:48:26.419Z,99057.56
2023-02-03T12:51:24.089Z,99064.84
2023-02-03T12:54:29.439Z,99062.78
2023-02-03T12:57:24.019Z,99067.22
2023-02-03T13:00:27.964Z,99067.03
2023-02-03T13:03:38.130Z,99064.63
2023-02-03T13:06:47.464Z,99066.03
2023-02-03T13:09:57.096Z,99060.44
2023-02-03T13:12:42.223Z,99065.75
2023-02-03T13:15:48.034Z,99065.84
2023-02-03T13:18:56.545Z,99075.53
2023-02-03T13:21:45.124Z,99063.06
2023-02-03T13:24:32.522Z,99065.25
2023-02-03T13:27:58.188Z,99068.59
2023-02-03T13:31:06.010Z,99073.81
2023-02-03T13:34:27.100Z,99071.63
2023-02-03T13:37:44.492Z,99080.00
2023-02-03T13:41:04.544Z,99090.59
2023-02-03T13:43:54.738Z,99081.69
2023-02-03T13:46:44.971Z,99089.13
2023-02-03T13:49:35.444Z,99087.16
2023-02-03T13:52:46.988Z,99099.47
2023-02-03T13:55:45.105Z,99109.41
2023-02-03T13:58:33.825Z,99104.53
2023-02-03T14:01:45.046Z,99103.38
2023-02-03T14:04:36.804Z,99108.16
2023-02-03T14:07:48.057Z,99110.53
2023-02-03T14:10:37.415Z,99101.91
2023-02-03T14:13:37.175Z,99111.66
2023-02-03T14:16:33.438Z,99114.66
2023-02-03T14:19:40.044Z,99119.66
2023-02-03T14:22:29.120Z,99119.56
2023-02-03T14:25:15.505Z,99106.63
2023-02-03T14:28:14.098Z,99110.00
2023-02-03T14:31:38.115Z,99109.91
2023-02-03T14:34:36.032Z,99109.91
2023-02-03T14:37:22.054Z,99114.81
2023-02-03T14:40:24.866Z,99104.25
2023-02-03T14:43:22.514Z,99101.78
2023-02-03T14:46:52.179Z,99104.34
2023-02-03T14:49:47.048Z,99101.09
2023-02-03T14:52:53.618Z,99095.16
2023-02-03T14:56:06.985Z,99089.56
2023-02-03T14:59:04.142Z,99096.63
2023-02-03T15:01:53.116Z,99107.69
2023-02-03T15:04:42.109Z,99111.25
2023-02-03T15:08:04.434Z,99112.06
2023-02-03T15:10:53.968Z,99112.91
2023-02-03T15:13:40.321Z,99107.88
2023-02-03T15:16:32.095Z,99108.50
2023-02-03T15:19:25.633Z,99108.59
2023-02-03T15:22:33.976Z,99106.41
2023-02-03T15:25:29.565Z,99102.41
2023-02-03T15:28:28.098Z,99097.53
2023-02-03T15:31:40.372Z,99093.41
2023-02-03T15:34:51.093Z,99098.66
2023-02-03T15:37:48.139Z,99104.81
2023-02-03T15:40:35.448Z,99106.66
2023-02-03T15:43:45.329Z,99109.81
2023-02-03T15:46:48.070Z,99104.88
2023-02-03T15:49:47.102Z,99106.53
2023-02-03T15:52:33.371Z,99107.00
2023-02-03T15:55:41.067Z,99104.19
2023-02-03T15:58:32.417Z,99102.53
2023-02-03T16:01:23.060Z,99114.09
2023-02-03T16:04:08.142Z,99122.94
2023-02-03T16:07:00.158Z,99125.28
2023-02-03T16:09:48.432Z,99116.81
2023-02-03T16:12:40.146Z,99121.56
2023-02-03T16:15:31.624Z,99120.19
2023-02-03T16:18:26.097Z,99125.75
2023-02-03T16:21:08.507Z,99128.66
2023-02-03T16:24:00.093Z,99118.41
2023-02-03T16:26:43.470Z,99125.16
2023-02-03T16:29:56.064Z,99125.63
2023-02-03T16:33:04.006Z,99132.50
2023-02-03T16:36:05.085Z,99141.81
2023-02-03T16:39:10.173Z,99132.34
2023-02-03T16:42:18.026Z,99119.06
2023-02-03T16:45:25.893Z,99118.38
2023-02-03T16:48:27.476Z,99123.97
2023-02-03T16:51:23.367Z,99117.97
2023-02-03T16:54:05.014Z,99122.13
2023-02-03T16:56:55.535Z,99125.53
2023-02-03T16:59:58.977Z,99128.78
2023-02-03T17:02:50.125Z,99129.06
2023-02-03T17:05:33.203Z,99130.81
2023-02-03T17:08:23.515Z,99131.69
2023-02-03T17:11:12.186Z,99124.19
2023-02-03T17:14:01.504Z,99119.75
2023-02-03T17:16:43.161Z,99124.56
2023-02-03T17:19:33.369Z,99125.00
2023-02-03T17:22:16.090Z,99119.78
2023-02-03T17:25:06.445Z,99124.97
2023-02-03T17:27:48.103Z,99119.47
2023-02-03T17:30:44.130Z,99121.56
2023-02-03T17:33:33.318Z,99122.03
2023-02-03T17:36:19.129Z,99125.97
2023-02-03T17:54:26.483Z,99107.53
2023-02-03T17:57:17.836Z,99100.09
2023-02-03T18:00:02.957Z,99105.53
2023-02-03T18:02:58.481Z,99098.34
2023-02-03T18:05:40.986Z,99092.59
2023-02-03T18:08:30.411Z,99093.78
2023-02-03T18:11:13.073Z,99093.09
2023-02-03T18:14:02.318Z,99094.16
2023-02-03T18:16:45.095Z,99095.00
2023-02-03T18:19:33.353Z,99095.00
2023-02-03T18:22:16.008Z,99083.22
2023-02-03T18:25:05.454Z,99090.00
2023-02-03T18:27:48.079Z,99105.09
2023-02-03T18:30:44.949Z,99109.03
2023-02-03T18:33:33.955Z,99103.59
2023-02-03T18:36:17.894Z,99100.09
2023-02-03T18:39:06.032Z,99100.09
2023-02-03T18:41:48.397Z,99091.56
2023-02-03T18:44:37.012Z,99092.84
2023-02-03T18:47:21.292Z,99079.03
2023-02-03T18:50:10.054Z,99069.59
2023-02-03T18:52:53.607Z,99075.84
2023-02-03T18:55:43.504Z,99081.91
2023-02-03T18:58:25.414Z,99072.91
2023-02-03T19:01:14.022Z,99084.66
2023-02-03T19:03:56.289Z,99082.84
2023-02-03T19:06:45.062Z,99086.38
2023-02-03T19:09:28.440Z,99084.81
2023-02-03T19:12:16.949Z,99085.47
2023-02-03T19:14:59.411Z,99082.50
2023-02-03T19:17:48.088Z,99074.72
2023-02-03T19:20:30.706Z,99075.50
2023-02-03T19:23:22.032Z,99077.16
2023-02-03T19:26:05.300Z,99071.66
2023-02-03T19:28:54.076Z,99066.78
2023-02-03T19:31:49.056Z,99071.09
2023-02-03T19:34:38.032Z,99070.94
2023-02-03T19:37:20.302Z,99067.69
2023-02-03T19:40:08.996Z,99075.50
2023-02-03T19:42:51.365Z,99063.25
2023-02-03T19:45:40.077Z,99075.78
2023-02-03T19:48:22.520Z,99065.31
2023-02-03T19:51:11.004Z,99061.59
2023-02-03T19:53:53.766Z,99067.53
2023-02-03T19:56:43.023Z,99073.31
2023-02-03T19:59:25.442Z,99063.25
2023-02-03T20:02:14.750Z,99046.84
2023-02-03T20:04:57.440Z,99046.78
2023-02-03T20:07:45.953Z,99050.50
2023-02-03T20:10:29.069Z,99046.19
2023-02-03T20:13:19.273Z,99042.72
2023-02-03T20:16:01.435Z,99033.25
2023-02-03T20:18:50.002Z,99034.50
2023-02-03T20:21:32.330Z,99027.72
2023-02-03T20:24:21.978Z,99016.94
2023-02-03T20:27:04.360Z,99016.28
2023-02-03T20:29:53.011Z,99018.53
2023-02-03T20:32:42.330Z,99021.44
2023-02-03T20:35:26.562Z,99016.13
2023-02-03T20:38:14.921Z,99008.75
2023-02-03T20:41:05.061Z,99009.34
2023-02-03T20:43:54.470Z,99006.28
2023-02-03T20:46:36.094Z,99005.47
2023-02-03T20:49:26.743Z,98998.91
2023-02-03T20:52:24.990Z,99000.19
2023-02-03T20:55:15.205Z,99000.25
2023-02-03T20:58:05.012Z,98995.34
2023-02-03T21:00:58.258Z,98995.97
2023-02-03T21:03:59.047Z,98990.06
2023-02-03T21:06:47.962Z,98986.00
2023-02-03T21:09:31.369Z,98987.44
2023-02-03T21:12:21.048Z,98986.44
2023-02-03T21:15:03.376Z,98989.53
2023-02-03T21:17:51.998Z,98988.09
2023-02-03T21:20:37.334Z,98990.81
2023-02-03T21:23:25.970Z,98980.41
2023-02-03T21:26:08.280Z,98986.50
2023-02-03T21:29:00.570Z,98976.22
2023-02-03T21:31:55.921Z,98978.75
2023-02-03T21:34:44.992Z,98982.66
2023-02-03T21:37:54.948Z,98979.19
2023-02-03T21:40:44.011Z,98982.44
2023-02-03T21:43:26.484Z,98976.09
2023-02-03T21:46:39.948Z,98970.56
2023-02-03T21:49:23.436Z,98964.97
2023-02-03T21:52:12.019Z,98967.66
2023-02-03T21:54:54.819Z,98961.88
2023-02-03T21:57:44.137Z,98963.72
2023-02-03T22:00:49.551Z,98965.19
2023-02-03T22:03:51.035Z,98962.50
2023-02-03T22:06:50.234Z,98955.44
2023-02-03T22:09:40.030Z,98954.44
2023-02-03T22:12:22.311Z,98934.84
2023-02-03T22:15:10.981Z,98943.25
2023-02-03T22:17:53.338Z,98944.31
2023-02-03T22:20:42.089Z,98945.56
2023-02-03T22:23:24.272Z,98941.88
2023-02-03T22:26:13.062Z,98948.81
2023-02-03T22:28:55.318Z,98937.16
2023-02-03T22:31:51.155Z,98939.41
2023-02-03T22:34:39.286Z,98931.66
2023-02-03T22:37:20.937Z,98918.75
2023-02-03T22:40:11.208Z,98913.00
2023-02-03T22:42:54.031Z,98920.63
2023-02-03T22:45:42.336Z,98913.25
2023-02-03T22:48:25.075Z,98916.13
2023-02-03T22:51:14.228Z,98906.44
2023-02-03T22:53:57.068Z,98907.06
2023-02-03T22:56:45.267Z,98910.56
2023-02-03T22:59:27.017Z,98907.50
2023-02-03T23:02:09.225Z,98898.44
2023-02-03T23:05:00.990Z,98902.19
2023-02-03T23:07:50.205Z,98896.84
2023-02-03T23:10:37.986Z,98902.41
2023-02-03T23:13:26.376Z,98901.59
2023-02-03T23:16:08.139Z,98892.16
2023-02-03T23:18:56.213Z,98889.69
2023-02-03T23:21:38.940Z,98889.09
2023-02-03T23:24:27.246Z,98892.41
2023-02-03T23:27:10.021Z,98884.84
2023-02-03T23:29:58.305Z,98894.28
2023-02-03T23:32:46.937Z,98889.38
2023-02-03T23:35:48.963Z,98888.75
2023-02-03T23:38:37.970Z,98887.50
2023-02-03T23:41:20.285Z,98883.44
2023-02-03T23:44:08.980Z,98883.81
2023-02-03T23:46:58.005Z,98883.00
2023-02-03T23:49:46.886Z,98881.41
2023-02-03T23:52:43.016Z,98892.28
2023-02-03T23:55:25.751Z,98888.81
2023-02-03T23:58:14.917Z,98880.63
